createdAt,value
2023-08-07T00:01:02.896Z,87.50
2023-08-07T00:04:04.799Z,86.80
2023-08-07T00:07:06.636Z,87.30
2023-08-07T00:10:08.701Z,87.50
2023-08-07T00:13:10.354Z,87.40
2023-08-07T00:16:12.344Z,87.50
2023-08-07T00:19:14.122Z,87.40
2023-08-07T00:22:15.837Z,87.20
2023-08-07T00:25:17.558Z,87.50
2023-08-07T00:28:19.221Z,87.90
2023-08-07T00:31:20.887Z,87.50
2023-08-07T00:34:22.658Z,87.90
2023-08-07T00:37:24.316Z,87.70
2023-08-07T00:40:25.945Z,87.60
2023-08-07T00:43:27.681Z,87.40
2023-08-07T00:46:31.092Z,87.30
2023-08-07T00:49:32.955Z,87.20
2023-08-07T00:52:34.729Z,87.50
2023-08-07T00:55:36.893Z,87.40
2023-08-07T00:58:38.900Z,87.00
2023-08-07T01:01:40.613Z,87.10
2023-08-07T01:04:42.247Z,87.00
2023-08-07T01:07:44.007Z,87.00
2023-08-07T01:11:03.461Z,86.70
2023-08-07T01:14:34.666Z,85.90
2023-08-07T01:17:36.561Z,86.00
2023-08-07T01:20:38.446Z,86.00
2023-08-07T01:23:40.044Z,85.50
2023-08-07T01:26:45.929Z,86.20
2023-08-07T01:30:14.835Z,86.30
2023-08-07T01:33:33.203Z,86.30
2023-08-07T01:36:35.658Z,86.20
2023-08-07T01:39:38.103Z,86.00
2023-08-07T01:42:39.985Z,86.20
2023-08-07T01:45:41.692Z,86.20
2023-08-07T01:48:43.321Z,86.70
2023-08-07T01:51:44.930Z,86.40
2023-08-07T01:54:46.677Z,86.10
2023-08-07T01:57:48.282Z,85.90
2023-08-07T02:00:49.931Z,86.10
2023-08-07T02:03:51.666Z,85.60
2023-08-07T02:06:53.615Z,85.10
2023-08-07T02:09:55.394Z,85.40
2023-08-07T02:13:00.265Z,84.90
2023-08-07T02:16:01.935Z,84.00
2023-08-07T02:19:03.555Z,84.20
2023-08-07T02:22:06.896Z,84.10
2023-08-07T02:25:09.073Z,83.20
2023-08-07T02:28:10.719Z,82.90
2023-08-07T02:31:12.325Z,82.40
2023-08-07T02:34:13.990Z,82.10
2023-08-07T02:37:15.796Z,82.50
2023-08-07T02:40:19.787Z,81.70
2023-08-07T02:43:21.541Z,82.10
2023-08-07T02:46:23.333Z,81.80
2023-08-07T02:49:25.047Z,81.90
2023-08-07T02:52:26.717Z,80.70
2023-08-07T02:55:28.314Z,81.10
2023-08-07T02:58:30.213Z,80.80
2023-08-07T03:01:31.906Z,81.00
2023-08-07T03:04:33.596Z,81.30
2023-08-07T03:07:35.536Z,81.00
2023-08-07T03:10:37.140Z,81.40
2023-08-07T03:13:38.733Z,81.00
2023-08-07T03:16:40.362Z,80.80
2023-08-07T03:19:44.307Z,81.00
2023-08-07T03:22:45.924Z,81.20
2023-08-07T03:25:47.674Z,81.30
2023-08-07T03:28:49.888Z,81.20
2023-08-07T03:31:51.994Z,80.30
2023-08-07T03:34:53.691Z,80.70
2023-08-07T03:37:55.418Z,80.50
2023-08-07T03:40:59.390Z,80.50
2023-08-07T03:44:01.043Z,80.70
2023-08-07T03:47:02.749Z,81.10
2023-08-07T03:50:07.065Z,80.50
2023-08-07T03:53:08.906Z,80.90
2023-08-07T03:56:10.645Z,80.60
2023-08-07T03:59:12.237Z,80.60
2023-08-07T04:02:13.842Z,80.70
2023-08-07T04:05:15.567Z,81.00
2023-08-07T04:08:17.240Z,80.80
2023-08-07T04:11:19.007Z,80.70
2023-08-07T04:14:20.667Z,80.70
2023-08-07T04:17:22.389Z,80.00
2023-08-07T04:20:25.434Z,80.10
2023-08-07T04:23:27.310Z,80.60
2023-08-07T04:26:28.929Z,80.20
2023-08-07T04:29:30.577Z,80.30
2023-08-07T04:32:32.316Z,80.20
2023-08-07T04:35:34.113Z,79.90
2023-08-07T04:38:35.799Z,80.00
2023-08-07T04:41:37.452Z,79.90
2023-08-07T04:44:39.312Z,79.30
2023-08-07T04:47:41.450Z,79.40
2023-08-07T04:50:43.273Z,79.20
2023-08-07T04:53:46.593Z,79.50
2023-08-07T04:56:48.269Z,79.60
2023-08-07T04:59:49.949Z,79.10
2023-08-07T05:02:52.307Z,79.30
2023-08-07T05:06:01.102Z,79.30
2023-08-07T05:09:04.314Z,79.00
2023-08-07T05:12:08.021Z,79.20
2023-08-07T05:15:10.205Z,78.80
2023-08-07T05:18:11.847Z,79.10
2023-08-07T05:21:13.558Z,78.70
2023-08-07T05:24:15.222Z,78.80
2023-08-07T05:27:17.007Z,79.20
2023-08-07T05:30:18.719Z,78.90
2023-08-07T05:33:20.424Z,79.10
2023-08-07T05:36:22.180Z,79.00
2023-08-07T05:39:24.077Z,80.00
2023-08-07T05:42:25.737Z,80.20
2023-08-07T05:45:27.437Z,79.40
2023-08-07T05:48:29.211Z,80.80
2023-08-07T05:51:31.116Z,80.00
2023-08-07T05:54:33.016Z,78.50
2023-08-07T05:57:35.257Z,78.70
2023-08-07T06:00:36.974Z,78.60
2023-08-07T06:03:39.007Z,78.40
2023-08-07T06:06:41.301Z,78.40
2023-08-07T06:09:43.016Z,78.10
2023-08-07T06:12:44.773Z,78.80
2023-08-07T06:15:46.543Z,78.20
2023-08-07T06:18:48.193Z,78.70
2023-08-07T06:21:49.968Z,78.20
2023-08-07T06:24:51.713Z,78.10
2023-08-07T06:27:54.655Z,78.60
2023-08-07T06:31:05.580Z,78.40
2023-08-07T06:34:07.196Z,79.40
2023-08-07T06:37:09.322Z,79.80
2023-08-07T06:40:11.495Z,80.00
2023-08-07T06:43:13.104Z,81.30
2023-08-07T06:46:14.879Z,81.00
2023-08-07T06:49:16.566Z,81.50
2023-08-07T06:52:18.270Z,81.50
2023-08-07T06:55:20.040Z,81.30
2023-08-07T06:58:21.722Z,81.00
2023-08-07T07:01:23.376Z,81.30
2023-08-07T07:04:25.066Z,81.80
2023-08-07T07:07:26.784Z,81.70
2023-08-07T07:10:28.402Z,81.90
2023-08-07T07:13:30.448Z,82.00
2023-08-07T07:16:32.203Z,81.90
2023-08-07T07:19:34.439Z,82.00
2023-08-07T07:22:36.629Z,82.00
2023-08-07T07:25:38.289Z,82.40
2023-08-07T07:28:42.874Z,82.00
2023-08-07T07:31:44.677Z,81.20
2023-08-07T07:34:46.343Z,81.80
2023-08-07T07:37:47.951Z,80.80
2023-08-07T07:40:49.594Z,80.00
2023-08-07T07:43:51.330Z,80.10
2023-08-07T07:46:52.969Z,79.10
2023-08-07T07:50:07.458Z,78.40
2023-08-07T07:53:09.424Z,78.90
2023-08-07T07:56:11.436Z,78.40
2023-08-07T07:59:13.664Z,77.80
2023-08-07T08:02:16.962Z,78.10
2023-08-07T08:05:18.938Z,77.10
2023-08-07T08:08:20.969Z,77.00
2023-08-07T08:11:22.689Z,76.80
2023-08-07T08:14:24.499Z,76.70
2023-08-07T08:17:27.048Z,76.70
2023-08-07T08:20:30.946Z,76.60
2023-08-07T08:23:32.942Z,75.80
2023-08-07T08:26:34.626Z,74.90
2023-08-07T08:29:36.411Z,75.10
2023-08-07T08:32:38.239Z,75.50
2023-08-07T08:35:40.270Z,74.90
2023-08-07T08:38:41.920Z,75.10
2023-08-07T08:41:47.108Z,75.80
2023-08-07T08:44:56.815Z,75.40
2023-08-07T08:48:03.192Z,74.30
2023-08-07T08:51:05.527Z,74.30
2023-08-07T08:54:07.315Z,74.30
2023-08-07T08:57:12.835Z,74.80
2023-08-07T09:00:26.682Z,75.30
2023-08-07T09:03:28.632Z,75.70
2023-08-07T09:06:32.859Z,75.20
2023-08-07T09:09:34.967Z,75.40
2023-08-07T09:12:41.155Z,76.20
2023-08-07T09:15:48.879Z,74.30
2023-08-07T09:18:51.156Z,75.70
2023-08-07T09:21:52.787Z,75.60
2023-08-07T09:24:54.453Z,75.50
2023-08-07T09:27:58.062Z,74.20
2023-08-07T09:31:00.544Z,74.70
2023-08-07T09:34:06.069Z,74.70
2023-08-07T09:37:11.055Z,75.70
2023-08-07T09:40:13.531Z,75.50
2023-08-07T09:43:23.413Z,76.80
2023-08-07T09:46:27.738Z,77.40
2023-08-07T09:49:34.282Z,79.40
2023-08-07T09:52:35.906Z,80.20
2023-08-07T09:55:37.662Z,81.70
2023-08-07T09:58:39.370Z,81.40
2023-08-07T10:01:44.451Z,81.70
2023-08-07T10:04:46.533Z,81.00
2023-08-07T10:07:49.419Z,81.80
2023-08-07T10:10:51.262Z,82.70
2023-08-07T10:13:55.284Z,83.30
2023-08-07T10:16:57.343Z,83.70
2023-08-07T10:19:59.319Z,84.20
2023-08-07T10:23:11.680Z,84.00
2023-08-07T10:26:14.650Z,83.60
2023-08-07T10:29:21.874Z,83.60
2023-08-07T10:32:26.416Z,83.90
2023-08-07T10:35:32.326Z,85.00
2023-08-07T10:38:36.196Z,85.20
2023-08-07T10:41:47.534Z,83.70
2023-08-07T10:44:50.658Z,84.00
2023-08-07T10:48:13.831Z,83.90
2023-08-07T10:51:17.856Z,83.90
2023-08-07T10:54:20.554Z,83.10
2023-08-07T10:57:24.072Z,81.10
2023-08-07T11:00:29.231Z,82.00
2023-08-07T11:03:36.361Z,81.10
2023-08-07T11:06:39.761Z,82.40
2023-08-07T11:09:42.862Z,79.30
2023-08-07T11:12:44.620Z,79.00
2023-08-07T11:15:47.673Z,79.20
2023-08-07T11:18:50.511Z,79.20
2023-08-07T11:21:52.578Z,80.70
2023-08-07T11:24:54.328Z,80.60
2023-08-07T11:27:55.946Z,80.60
2023-08-07T11:30:58.465Z,80.60
2023-08-07T11:34:03.878Z,81.20
2023-08-07T11:37:05.881Z,81.30
2023-08-07T11:40:08.156Z,82.10
2023-08-07T11:43:10.801Z,82.10
2023-08-07T11:46:14.902Z,80.80
2023-08-07T11:49:16.709Z,80.40
2023-08-07T11:52:18.583Z,80.70
2023-08-07T11:55:20.333Z,80.80
2023-08-07T11:58:22.836Z,81.20
2023-08-07T12:01:27.491Z,81.40
2023-08-07T12:04:36.251Z,80.70
2023-08-07T12:07:39.061Z,81.30
2023-08-07T12:10:41.689Z,76.50
2023-08-07T12:13:46.357Z,74.40
2023-08-07T12:16:48.839Z,75.80
2023-08-07T12:19:51.665Z,76.90
2023-08-07T12:22:53.778Z,80.80
2023-08-07T12:25:58.922Z,81.00
2023-08-07T12:29:00.714Z,81.70
2023-08-07T12:32:03.754Z,82.40
2023-08-07T12:38:17.998Z,82.30
2023-08-07T12:44:24.825Z,79.70
2023-08-07T12:47:26.700Z,79.60
2023-08-07T12:50:29.415Z,78.50
2023-08-07T12:53:32.955Z,77.30
2023-08-07T12:56:34.657Z,75.20
2023-08-07T12:59:38.628Z,74.00
2023-08-07T13:02:47.773Z,73.50
2023-08-07T13:05:49.486Z,71.50
2023-08-07T13:08:51.148Z,61.90
2023-08-07T13:11:52.799Z,62.80
2023-08-07T13:14:54.628Z,62.40
2023-08-07T13:17:56.236Z,58.90
2023-08-07T13:20:58.341Z,60.70
2023-08-07T13:23:59.997Z,59.00
2023-08-07T13:27:01.712Z,59.90
2023-08-07T13:30:04.858Z,58.20
2023-08-07T13:33:06.571Z,60.70
2023-08-07T13:36:08.557Z,59.50
2023-08-07T13:39:10.343Z,56.60
2023-08-07T13:42:12.086Z,55.80
2023-08-07T13:45:14.589Z,57.50
2023-08-07T13:48:16.337Z,56.70
2023-08-07T13:51:18.904Z,56.50
2023-08-07T13:54:20.878Z,56.50
2023-08-07T13:57:23.516Z,56.80
2023-08-07T14:00:25.263Z,55.40
2023-08-07T14:03:27.239Z,55.60
2023-08-07T14:06:29.126Z,55.00
2023-08-07T14:09:30.832Z,54.90
2023-08-07T14:12:32.481Z,56.00
2023-08-07T14:15:34.376Z,54.90
2023-08-07T14:18:36.052Z,54.80
2023-08-07T14:21:37.847Z,54.80
2023-08-07T14:24:39.751Z,54.20
2023-08-07T14:27:41.355Z,54.10
2023-08-07T14:30:43.066Z,53.20
2023-08-07T14:33:44.779Z,51.30
2023-08-07T14:36:46.447Z,51.40
2023-08-07T14:39:48.369Z,52.10
2023-08-07T14:42:50.182Z,51.10
2023-08-07T14:45:51.850Z,51.70
2023-08-07T14:48:53.532Z,51.20
2023-08-07T14:51:55.839Z,51.10
2023-08-07T14:54:58.543Z,50.10
2023-08-07T14:58:00.345Z,50.60
2023-08-07T15:01:02.061Z,49.80
2023-08-07T15:04:03.781Z,49.00
2023-08-07T15:07:05.965Z,49.90
2023-08-07T15:10:09.384Z,51.20
2023-08-07T15:13:11.121Z,50.10
2023-08-07T15:16:13.055Z,50.40
2023-08-07T15:19:14.874Z,49.60
2023-08-07T15:22:17.056Z,51.80
2023-08-07T15:25:19.019Z,50.60
2023-08-07T15:28:20.692Z,50.10
2023-08-07T15:31:22.467Z,50.60
2023-08-07T15:34:24.101Z,49.80
2023-08-07T15:37:25.829Z,48.30
2023-08-07T15:40:28.244Z,49.10
2023-08-07T15:43:29.966Z,50.00
2023-08-07T15:46:31.778Z,51.30
2023-08-07T15:49:33.495Z,51.10
2023-08-07T15:52:35.152Z,50.30
2023-08-07T15:55:37.000Z,49.70
2023-08-07T15:58:38.745Z,48.40
2023-08-07T16:01:40.449Z,47.30
2023-08-07T16:04:42.092Z,47.60
2023-08-07T16:07:43.891Z,45.50
2023-08-07T16:10:45.617Z,43.70
2023-08-07T16:13:47.453Z,45.40
2023-08-07T16:16:49.186Z,45.80
2023-08-07T16:19:50.814Z,42.60
2023-08-07T16:22:52.511Z,43.40
2023-08-07T16:25:54.194Z,43.20
2023-08-07T16:28:55.824Z,41.60
2023-08-07T16:31:57.792Z,41.60
2023-08-07T16:34:59.907Z,41.60
2023-08-07T16:38:01.529Z,41.00
2023-08-07T16:41:03.149Z,40.80
2023-08-07T16:44:04.893Z,40.60
2023-08-07T16:47:07.672Z,40.60
2023-08-07T16:50:10.035Z,41.00
2023-08-07T16:53:12.904Z,41.80
2023-08-07T16:56:14.683Z,42.80
2023-08-07T16:59:16.324Z,42.70
2023-08-07T17:02:18.064Z,42.90
2023-08-07T17:05:23.115Z,43.80
2023-08-07T17:08:24.816Z,43.60
2023-08-07T17:11:29.234Z,41.10
2023-08-07T17:14:30.919Z,41.60
2023-08-07T17:17:32.657Z,41.00
2023-08-07T17:20:34.413Z,40.40
2023-08-07T17:23:36.039Z,40.10
2023-08-07T17:26:37.760Z,40.20
2023-08-07T17:29:39.403Z,41.60
2023-08-07T17:32:41.090Z,40.90
2023-08-07T17:35:42.886Z,40.00
2023-08-07T17:38:44.743Z,40.80
2023-08-07T17:41:48.585Z,39.70
2023-08-07T17:44:51.489Z,42.20
2023-08-07T17:47:53.250Z,43.50
2023-08-07T17:50:55.075Z,45.10
2023-08-07T17:53:57.164Z,46.10
2023-08-07T17:56:59.109Z,46.50
2023-08-07T18:00:01.125Z,47.60
2023-08-07T18:03:04.291Z,48.50
2023-08-07T18:06:05.994Z,46.90
2023-08-07T18:09:08.739Z,46.40
2023-08-07T18:12:10.882Z,46.90
2023-08-07T18:15:12.630Z,47.30
2023-08-07T18:18:14.322Z,48.20
2023-08-07T18:21:16.008Z,49.00
2023-08-07T18:24:18.985Z,49.80
2023-08-07T18:27:23.144Z,50.90
2023-08-07T18:30:24.885Z,52.30
2023-08-07T18:33:27.926Z,52.80
2023-08-07T18:36:30.252Z,53.30
2023-08-07T18:39:31.992Z,54.10
2023-08-07T18:42:33.782Z,54.20
2023-08-07T18:45:35.861Z,54.20
2023-08-07T18:48:37.599Z,54.40
2023-08-07T18:51:39.417Z,54.50
2023-08-07T18:54:41.197Z,55.30
2023-08-07T18:57:43.049Z,55.20
2023-08-07T19:00:44.702Z,55.50
2023-08-07T19:03:46.702Z,55.70
2023-08-07T19:06:48.415Z,56.30
2023-08-07T19:09:50.067Z,56.20
2023-08-07T19:12:51.843Z,56.40
2023-08-07T19:15:55.317Z,57.10
2023-08-07T19:18:57.000Z,57.10
2023-08-07T19:21:58.673Z,57.70
2023-08-07T19:25:00.371Z,58.00
2023-08-07T19:28:02.077Z,58.10
2023-08-07T19:31:06.698Z,58.30
2023-08-07T19:34:10.834Z,59.00
2023-08-07T19:37:12.702Z,58.90
2023-08-07T19:40:14.602Z,59.40
2023-08-07T19:43:16.448Z,59.50
2023-08-07T19:46:18.456Z,59.70
2023-08-07T19:49:20.190Z,60.20
2023-08-07T19:52:24.041Z,60.10
2023-08-07T19:55:25.851Z,60.30
2023-08-07T19:58:27.510Z,60.40
2023-08-07T20:01:29.232Z,60.60
2023-08-07T20:04:31.189Z,61.00
2023-08-07T20:07:32.970Z,61.80
2023-08-07T20:10:34.829Z,61.90
2023-08-07T20:13:36.581Z,62.60
2023-08-07T20:16:38.290Z,63.00
2023-08-07T20:19:42.506Z,63.30
2023-08-07T20:22:44.203Z,63.90
2023-08-07T20:25:45.858Z,63.90
2023-08-07T20:28:47.519Z,64.60
2023-08-07T20:31:49.223Z,65.20
2023-08-07T20:34:50.858Z,66.10
2023-08-07T20:37:52.570Z,66.20
2023-08-07T20:40:54.175Z,66.60
2023-08-07T20:43:56.031Z,67.00
2023-08-07T20:46:57.727Z,67.20
2023-08-07T20:50:01.212Z,67.30
2023-08-07T20:53:02.909Z,67.40
2023-08-07T20:56:04.902Z,67.70
2023-08-07T20:59:06.560Z,67.90
2023-08-07T21:02:08.294Z,68.10
2023-08-07T21:05:10.033Z,68.50
2023-08-07T21:08:11.718Z,69.00
2023-08-07T21:11:13.333Z,69.50
2023-08-07T21:14:15.199Z,69.70
2023-08-07T21:17:16.838Z,70.20
2023-08-07T21:20:18.700Z,70.40
2023-08-07T21:23:20.307Z,70.80
2023-08-07T21:26:21.978Z,71.10
2023-08-07T21:29:23.685Z,71.70
2023-08-07T21:32:25.362Z,72.70
2023-08-07T21:35:27.050Z,72.90
2023-08-07T21:38:28.698Z,73.40
2023-08-07T21:41:31.491Z,73.70
2023-08-07T21:44:33.162Z,74.00
2023-08-07T21:47:35.077Z,74.20
2023-08-07T21:50:37.432Z,74.50
2023-08-07T21:53:39.168Z,74.90
2023-08-07T21:56:43.639Z,75.50
2023-08-07T21:59:45.463Z,75.60
2023-08-07T22:02:48.422Z,76.00
2023-08-07T22:05:52.504Z,76.20
2023-08-07T22:08:54.206Z,76.50
2023-08-07T22:11:56.153Z,76.80
2023-08-07T22:14:58.171Z,77.10
2023-08-07T22:17:59.863Z,77.00
2023-08-07T22:21:01.816Z,77.00
2023-08-07T22:24:03.555Z,77.40
2023-08-07T22:27:05.406Z,77.50
2023-08-07T22:30:08.775Z,77.60
2023-08-07T22:33:10.668Z,77.70
2023-08-07T22:36:14.935Z,77.90
2023-08-07T22:39:16.614Z,78.10
2023-08-07T22:42:18.235Z,78.10
2023-08-07T22:45:19.994Z,78.10
2023-08-07T22:48:21.653Z,78.40
2023-08-07T22:51:24.419Z,79.00
2023-08-07T22:54:26.192Z,79.20
2023-08-07T22:57:27.878Z,79.00
2023-08-07T23:00:29.584Z,79.20
2023-08-07T23:03:31.330Z,79.40
2023-08-07T23:06:33.624Z,79.70
2023-08-07T23:09:35.389Z,79.60
2023-08-07T23:12:37.058Z,79.50
2023-08-07T23:15:39.309Z,80.00
2023-08-07T23:18:41.050Z,80.00
2023-08-07T23:21:42.729Z,80.70
2023-08-07T23:24:44.547Z,80.80
2023-08-07T23:27:46.312Z,81.40
2023-08-07T23:30:47.955Z,81.70
2023-08-07T23:33:49.551Z,82.10
2023-08-07T23:36:51.237Z,82.20
2023-08-07T23:39:52.889Z,81.80
2023-08-07T23:42:54.577Z,81.80
2023-08-07T23:45:56.185Z,81.60
2023-08-07T23:49:00.352Z,81.60
2023-08-07T23:52:02.067Z,81.50
2023-08-07T23:55:04.685Z,81.30
2023-08-07T23:58:08.497Z,81.10
